»·PEaware :: N27JP KSNA-KCRQ

N27JP :: KSNA-KCRQ

FLIGHT INFORMATION

Flight Status: Arrived
Operator: Privately registered:
United States
More flights under this callsign
Pilot: Weston J. (31543)
Aircraft: CESSNA 172 SKYHAWK
(C172)
More flights by this aircraft type
Origin: KSNA John Wayne-Orange Co
United States
Destination: KCRQ McClellan-Palomar
United States
More flights between these airports :: More routes between these airports
Route: +V23 OCN
File this flight plan on PilotEdge
Remarks: I-2 Rating Attempt
Altitude:
(Current/Filed)
5,000ft
Speed:
(Current/Filed)
110kts
Departed: 29-Nov-20 07:13 PM
Arrived: 29-Nov-20 07:59 PM
Distance/Time
Traveled:
44nm/0:45
Distance/Time
To Go:
Arrived

Flight Plot

Page will automatically refresh every two minutes.


Map Options




Map Legend


Flown Route
Filed Route
Departure Airport
Arrival Airport
Navaid (VOR, NDB)
Fix

Horizontal Profiles

Position Reports

Time Latitude Longitude Heading Altitude Ground
Speed
29-Nov-20 18:43 33.674286 -117.871983 297 54ft 0kts
29-Nov-20 18:44 33.674286 -117.871983 297 54ft 0kts
29-Nov-20 18:45 33.674286 -117.871983 297 54ft 0kts
29-Nov-20 18:46 33.674286 -117.871983 297 54ft 0kts
29-Nov-20 18:47 33.674286 -117.871983 297 54ft 0kts
29-Nov-20 18:48 33.674286 -117.871983 297 54ft 0kts
29-Nov-20 18:49 33.674286 -117.871983 297 54ft 0kts
29-Nov-20 18:50 33.674286 -117.871983 297 54ft 0kts
29-Nov-20 18:51 33.674286 -117.871983 297 54ft 0kts
29-Nov-20 18:52 33.674286 -117.871983 297 54ft 0kts
29-Nov-20 18:53 33.674286 -117.871983 297 54ft 0kts
29-Nov-20 18:54 33.674286 -117.871983 297 54ft 0kts
29-Nov-20 18:55 33.674286 -117.871983 297 54ft 0kts
29-Nov-20 18:56 33.674286 -117.871983 297 54ft 0kts
29-Nov-20 18:57 33.674286 -117.871983 297 54ft 0kts
29-Nov-20 18:58 33.674286 -117.871983 297 54ft 0kts
29-Nov-20 18:59 33.674286 -117.871983 297 54ft 0kts
29-Nov-20 19:00 33.674286 -117.871983 297 54ft 0kts
29-Nov-20 19:01 33.674286 -117.871983 297 54ft 0kts
29-Nov-20 19:02 33.674286 -117.871983 297 54ft 0kts
29-Nov-20 19:03 33.674286 -117.871983 297 54ft 0kts
29-Nov-20 19:04 33.674286 -117.871983 297 54ft 0kts
29-Nov-20 19:05 33.674447 -117.871126 27 54ft 10kts
29-Nov-20 19:06 33.677859 -117.868958 27 51ft 17kts
29-Nov-20 19:07 33.681215 -117.866459 118 43ft 0kts
29-Nov-20 19:08 33.681215 -117.866459 118 43ft 0kts
29-Nov-20 19:09 33.681215 -117.866459 118 43ft 0kts
29-Nov-20 19:10 33.681215 -117.866459 118 43ft 0kts
29-Nov-20 19:11 33.681074 -117.866156 118 43ft 14kts
29-Nov-20 19:12 33.667276 -117.874137 207 281ft 89kts
29-Nov-20 19:13 33.639557 -117.881671 186 783ft 109kts
29-Nov-20 19:14 33.609901 -117.886133 186 1478ft 106kts
29-Nov-20 19:15 33.580797 -117.890780 186 2182ft 104kts
29-Nov-20 19:16 33.552069 -117.895260 186 2882ft 103kts
29-Nov-20 19:17 33.523752 -117.899498 186 3581ft 102kts
29-Nov-20 19:18 33.495978 -117.901604 156 4281ft 98kts
29-Nov-20 19:19 33.478430 -117.878470 119 4921ft 98kts
29-Nov-20 19:20 33.464607 -117.844648 115 5013ft 123kts
29-Nov-20 19:21 33.445729 -117.809477 121 5017ft 126kts
29-Nov-20 19:22 33.428014 -117.776189 118 5019ft 113kts
29-Nov-20 19:23 33.411611 -117.744965 118 5019ft 111kts
29-Nov-20 19:24 33.395181 -117.713470 119 5019ft 111kts
29-Nov-20 19:25 33.378566 -117.681624 119 4993ft 112kts
29-Nov-20 19:26 33.362064 -117.649985 119 4990ft 111kts
29-Nov-20 19:27 33.345603 -117.618461 119 4990ft 111kts
29-Nov-20 19:28 33.329232 -117.587120 119 4990ft 111kts
29-Nov-20 19:29 33.312750 -117.555592 119 4981ft 111kts
29-Nov-20 19:30 33.303287 -117.521130 101 4980ft 109kts
29-Nov-20 19:31 33.295897 -117.485866 102 4998ft 109kts
29-Nov-20 19:32 33.288513 -117.450759 102 5000ft 109kts
29-Nov-20 19:33 33.281137 -117.415550 102 5000ft 109kts
29-Nov-20 19:34 33.273765 -117.380465 102 5006ft 109kts
29-Nov-20 19:35 33.266399 -117.345101 102 4999ft 109kts
29-Nov-20 19:36 33.259348 -117.309827 98 4999ft 109kts
29-Nov-20 19:37 33.254520 -117.274199 97 4999ft 108kts
29-Nov-20 19:38 33.249999 -117.238474 97 5001ft 109kts
29-Nov-20 19:39 33.245588 -117.202884 97 5000ft 109kts
29-Nov-20 19:40 33.241126 -117.167023 97 4998ft 109kts
29-Nov-20 19:41 33.236740 -117.131192 97 5022ft 106kts
29-Nov-20 19:42 33.232432 -117.095666 97 5061ft 110kts
29-Nov-20 19:43 33.228034 -117.059750 97 5058ft 108kts
29-Nov-20 19:44 33.223736 -117.024113 97 5063ft 108kts
29-Nov-20 19:45 33.219460 -116.988326 97 5064ft 109kts
29-Nov-20 19:46 33.215144 -116.952395 97 5063ft 108kts
29-Nov-20 19:47 33.210871 -116.916575 97 5066ft 110kts
29-Nov-20 19:48 33.186738 -116.920507 222 5068ft 114kts
29-Nov-20 19:49 33.167014 -116.950799 254 4954ft 122kts
29-Nov-20 19:50 33.165440 -116.992377 272 4511ft 128kts
29-Nov-20 19:51 33.166590 -117.035111 272 4016ft 129kts
29-Nov-20 19:52 33.160998 -117.076969 256 3548ft 128kts
29-Nov-20 19:53 33.154674 -117.118617 258 3059ft 130kts
29-Nov-20 19:54 33.147864 -117.159601 259 2347ft 124kts
29-Nov-20 19:55 33.141541 -117.199615 259 1651ft 120kts
29-Nov-20 19:56 33.135442 -117.235788 257 967ft 105kts
29-Nov-20 19:57 33.130951 -117.263351 259 527ft 72kts
29-Nov-20 19:58 33.127785 -117.279596 192 331ft 9kts
29-Nov-20 19:59 33.127540 -117.279542 191 331ft 3kts

Navigation Log

Ident Type
Flight plan parsing failed, navigation log unavailable